Time;durP1;ratioP1;P1;durP2;ratioP2;P2;SDS_P1;SDS_P2;PMS_P1;PMS_P2;Temp;Humidity;BMP_temperature;BMP_pressure;BME280_temperature;BME280_humidity;BME280_pressure;Samples;Min_cycle;Max_cycle;Signal;HPM_P1;HPM_P2
2024/01/03 00:00:06;;;;;;;8.23;4.55;;;23.20;51.60;;;;;;5046850;28;20048;-69
2024/01/03 00:02:33;;;;;;;7.45;3.85;;;23.20;51.60;;;;;;5090714;28;20720;-68
2024/01/03 00:04:59;;;;;;;5.60;3.33;;;23.30;51.60;;;;;;5104541;28;20035;-68
2024/01/03 00:07:25;;;;;;;7.57;4.28;;;23.20;51.40;;;;;;5110492;28;20042;-69
2024/01/03 00:10:00;;;;;;;5.10;3.35;;;23.30;51.60;;;;;;5110566;28;20062;-69
2024/01/03 00:12:26;;;;;;;6.20;3.33;;;23.40;51.50;;;;;;5110638;28;20076;-69
2024/01/03 00:14:52;;;;;;;8.10;3.67;;;23.20;50.80;;;;;;5110628;28;20078;-68
2024/01/03 00:17:20;;;;;;;5.30;3.08;;;23.10;51.00;;;;;;5091175;28;20128;-68
2024/01/03 00:19:54;;;;;;;6.95;3.65;;;23.10;51.10;;;;;;5110339;28;20028;-69
2024/01/03 00:22:21;;;;;;;6.78;3.40;;;23.10;51.30;;;;;;5108916;28;20035;-69
2024/01/03 00:24:48;;;;;;;6.03;3.45;;;23.10;51.30;;;;;;5110432;28;20031;-67
2024/01/03 00:27:16;;;;;;;7.47;3.35;;;23.10;51.70;;;;;;5108893;28;20058;-69
2024/01/03 00:29:53;;;;;;;7.07;3.47;;;23.10;51.40;;;;;;5110482;28;20437;-69
2024/01/03 00:32:23;;;;;;;8.05;3.60;;;23.10;51.40;;;;;;5110804;28;20059;-69
2024/01/03 00:34:50;;;;;;;5.85;3.50;;;23.10;51.90;;;;;;5111323;28;20039;-68
2024/01/03 00:37:24;;;;;;;6.45;3.10;;;23.10;51.40;;;;;;5112526;28;20055;-69
2024/01/03 00:39:51;;;;;;;9.82;3.40;;;23.00;51.30;;;;;;5094625;28;20522;-68
2024/01/03 00:42:17;;;;;;;4.38;3.13;;;23.00;51.30;;;;;;5112614;28;20047;-69
2024/01/03 00:44:43;;;;;;;6.00;3.50;;;23.00;51.20;;;;;;5113958;28;20028;-69
2024/01/03 00:47:10;;;;;;;8.57;3.58;;;23.10;51.30;;;;;;5112374;28;20016;-69
2024/01/03 00:49:36;;;;;;;6.43;3.85;;;23.10;51.40;;;;;;5113682;28;20044;-68
2024/01/03 00:52:03;;;;;;;8.68;4.35;;;23.10;51.30;;;;;;5114021;28;20024;-68
2024/01/03 00:54:30;;;;;;;9.10;4.65;;;23.10;51.20;;;;;;5112443;28;20117;-69
2024/01/03 00:56:59;;;;;;;12.52;5.38;;;23.00;51.70;;;;;;5113132;28;20433;-69
2024/01/03 00:59:26;;;;;;;10.85;6.05;;;23.10;51.10;;;;;;5078063;28;20066;-69
2024/01/03 01:01:55;;;;;;;11.50;6.22;;;23.00;51.00;;;;;;5114076;28;20085;-69
2024/01/03 01:04:21;;;;;;;11.30;6.20;;;23.20;51.10;;;;;;5113576;28;20031;-69
2024/01/03 01:06:48;;;;;;;11.27;6.47;;;23.20;51.10;;;;;;5113752;28;20043;-69
2024/01/03 01:09:14;;;;;;;10.45;6.28;;;23.10;51.00;;;;;;5069758;28;20121;-69
2024/01/03 01:11:40;;;;;;;11.32;6.80;;;23.20;50.90;;;;;;5070400;28;20459;-69
2024/01/03 01:14:06;;;;;;;10.02;6.45;;;23.10;51.00;;;;;;5070213;28;20048;-69
2024/01/03 01:16:32;;;;;;;12.90;6.32;;;23.00;51.00;;;;;;5070514;28;20083;-69
2024/01/03 01:18:58;;;;;;;10.60;6.07;;;23.10;51.70;;;;;;5069479;28;20048;-69
2024/01/03 01:21:24;;;;;;;7.47;4.63;;;22.90;50.90;;;;;;5070380;28;20079;-69
2024/01/03 01:23:50;;;;;;;8.98;4.65;;;23.00;51.10;;;;;;5069992;28;20110;-68
2024/01/03 01:26:17;;;;;;;9.20;5.00;;;22.90;50.90;;;;;;5036445;28;20124;-69
2024/01/03 01:28:43;;;;;;;7.65;4.40;;;23.00;51.00;;;;;;5067653;28;20072;-69
2024/01/03 01:31:09;;;;;;;7.93;4.22;;;23.00;51.00;;;;;;5069713;28;20434;-69
2024/01/03 01:33:35;;;;;;;9.25;4.22;;;22.90;51.00;;;;;;5070252;28;20049;-68
2024/01/03 01:36:01;;;;;;;5.82;3.92;;;22.90;51.00;;;;;;5069717;28;20049;-68
2024/01/03 01:38:27;;;;;;;7.43;4.05;;;22.90;51.00;;;;;;5053274;28;20623;-68
2024/01/03 01:40:53;;;;;;;7.60;3.55;;;23.00;50.90;;;;;;5102435;28;20384;-69
2024/01/03 01:43:19;;;;;;;7.95;4.50;;;22.90;50.90;;;;;;5112839;28;20585;-66
2024/01/03 01:45:47;;;;;;;6.72;4.05;;;22.90;50.80;;;;;;5112189;27;20732;-68
2024/01/03 01:48:16;;;;;;;10.15;4.22;;;23.00;50.80;;;;;;5112194;28;20042;-68
2024/01/03 01:50:44;;;;;;;7.00;4.07;;;23.00;50.70;;;;;;5112194;28;20106;-68
2024/01/03 01:53:10;;;;;;;6.03;3.63;;;23.00;50.70;;;;;;5112233;28;20032;-69
2024/01/03 01:55:38;;;;;;;7.70;4.55;;;23.00;50.70;;;;;;5111961;28;20066;-69
2024/01/03 01:58:07;;;;;;;9.27;4.80;;;23.00;50.70;;;;;;5111021;28;20039;-69
2024/01/03 02:00:33;;;;;;;8.35;4.38;;;23.10;50.80;;;;;;5089175;28;20040;-68
2024/01/03 02:03:01;;;;;;;7.25;4.05;;;23.10;50.70;;;;;;5089774;28;20226;-68
2024/01/03 02:05:27;;;;;;;8.20;3.83;;;23.00;50.60;;;;;;5081061;28;20040;-69
2024/01/03 02:07:53;;;;;;;5.35;3.67;;;23.00;50.60;;;;;;5089410;28;20123;-69
2024/01/03 02:10:20;;;;;;;8.68;4.10;;;23.10;50.60;;;;;;5089270;28;20044;-69
2024/01/03 02:12:46;;;;;;;12.63;4.00;;;23.00;50.50;;;;;;5039434;28;20630;-69
2024/01/03 02:15:12;;;;;;;6.85;3.58;;;23.00;50.50;;;;;;5055074;28;20122;-69
2024/01/03 02:17:40;;;;;;;7.85;3.78;;;23.10;50.70;;;;;;5051388;28;20044;-69
2024/01/03 02:20:07;;;;;;;9.05;4.40;;;23.00;50.60;;;;;;5088676;28;20418;-68
2024/01/03 02:22:33;;;;;;;8.18;4.07;;;23.00;51.30;;;;;;5072415;28;20036;-68
2024/01/03 02:24:59;;;;;;;4.95;3.92;;;23.00;51.10;;;;;;5071761;28;20456;-68
2024/01/03 02:27:26;;;;;;;9.18;4.07;;;22.90;50.50;;;;;;5089286;28;20106;-69
2024/01/03 02:29:52;;;;;;;8.57;3.97;;;23.00;50.70;;;;;;5071704;28;20075;-69
2024/01/03 02:32:18;;;;;;;6.32;3.78;;;22.90;50.80;;;;;;5097765;28;20032;-68
2024/01/03 02:34:44;;;;;;;7.32;3.58;;;22.90;50.80;;;;;;5111894;27;20046;-69
2024/01/03 02:37:11;;;;;;;8.93;3.60;;;23.00;50.70;;;;;;5111995;28;20487;-69
2024/01/03 02:39:37;;;;;;;8.75;4.38;;;23.00;50.60;;;;;;5111692;27;20043;-69
2024/01/03 02:42:04;;;;;;;6.85;3.50;;;22.90;50.50;;;;;;5111668;28;20115;-68
2024/01/03 02:44:30;;;;;;;5.85;3.13;;;22.90;50.50;;;;;;5111450;28;20498;-69
2024/01/03 02:46:56;;;;;;;6.65;3.55;;;22.90;50.40;;;;;;5075632;28;20425;-69
2024/01/03 02:49:22;;;;;;;9.20;3.40;;;22.90;50.40;;;;;;5110033;28;20039;-69
2024/01/03 02:51:49;;;;;;;10.57;3.90;;;23.00;50.30;;;;;;5111249;28;20039;-67
2024/01/03 02:54:15;;;;;;;9.07;4.15;;;23.00;50.30;;;;;;5111976;28;20058;-68
2024/01/03 02:56:41;;;;;;;6.78;3.95;;;23.00;50.10;;;;;;5111262;28;20016;-69
2024/01/03 02:59:07;;;;;;;6.88;4.45;;;22.90;50.10;;;;;;5110989;28;20031;-67
2024/01/03 03:01:34;;;;;;;8.18;4.53;;;23.00;50.10;;;;;;5111247;28;20502;-68
2024/01/03 03:04:00;;;;;;;7.47;3.45;;;23.00;50.10;;;;;;5111767;28;20031;-69
2024/01/03 03:06:26;;;;;;;6.13;3.20;;;22.90;50.10;;;;;;5111137;28;20112;-69
2024/01/03 03:08:52;;;;;;;6.03;3.08;;;23.00;50.10;;;;;;5111462;28;20114;-69
2024/01/03 03:11:19;;;;;;;5.90;3.08;;;22.90;50.20;;;;;;5091893;28;20048;-69
2024/01/03 03:13:45;;;;;;;5.95;3.30;;;22.90;50.20;;;;;;5111402;28;20043;-69
2024/01/03 03:16:11;;;;;;;7.50;3.40;;;22.90;50.20;;;;;;5061980;28;20046;-68
2024/01/03 03:18:37;;;;;;;7.40;3.40;;;22.90;50.10;;;;;;5110943;28;20101;-68
2024/01/03 03:21:03;;;;;;;7.53;3.63;;;22.80;50.00;;;;;;5110910;28;20357;-69
2024/01/03 03:23:29;;;;;;;4.28;3.55;;;22.90;50.10;;;;;;5109955;28;20031;-69
2024/01/03 03:25:56;;;;;;;10.63;3.63;;;22.70;49.90;;;;;;5083300;28;20027;-69
2024/01/03 03:28:22;;;;;;;5.68;3.00;;;22.80;50.00;;;;;;5091660;28;20052;-69
2024/01/03 03:30:48;;;;;;;4.68;2.40;;;22.90;50.00;;;;;;5110721;28;20043;-69
2024/01/03 03:33:14;;;;;;;4.13;2.47;;;22.80;49.90;;;;;;5111309;28;20129;-69
2024/01/03 03:35:40;;;;;;;4.75;2.50;;;22.80;49.90;;;;;;5110972;28;20406;-69
2024/01/03 03:38:06;;;;;;;7.70;3.10;;;22.90;49.90;;;;;;5111561;28;20036;-69
2024/01/03 03:40:32;;;;;;;5.85;2.47;;;22.90;49.80;;;;;;5110917;28;20041;-68
2024/01/03 03:42:58;;;;;;;5.05;2.80;;;22.90;49.80;;;;;;5110302;28;20115;-69
2024/01/03 03:45:24;;;;;;;3.40;2.22;;;22.90;49.70;;;;;;5111090;28;20069;-69
2024/01/03 03:47:51;;;;;;;3.72;2.72;;;22.90;49.70;;;;;;5111421;28;20035;-69
2024/01/03 03:50:17;;;;;;;5.00;2.25;;;22.90;49.40;;;;;;5110051;28;20387;-69
2024/01/03 03:52:43;;;;;;;4.88;2.60;;;22.90;49.50;;;;;;5089509;28;20032;-69
2024/01/03 03:55:12;;;;;;;5.78;2.83;;;22.90;49.50;;;;;;5110777;28;20471;-69
2024/01/03 03:57:38;;;;;;;8.88;3.17;;;22.90;49.50;;;;;;5070809;28;20090;-69
2024/01/03 04:00:04;;;;;;;5.68;2.67;;;23.00;49.50;;;;;;5090483;28;20112;-68
2024/01/03 04:02:38;;;;;;;7.28;2.38;;;22.90;49.50;;;;;;5106755;28;20043;-69
2024/01/03 04:05:04;;;;;;;4.50;2.55;;;22.90;49.50;;;;;;5088420;28;20544;-68
2024/01/03 04:07:31;;;;;;;5.03;2.58;;;22.90;49.40;;;;;;5106238;28;20054;-69
2024/01/03 04:09:57;;;;;;;7.30;3.00;;;22.70;49.30;;;;;;5113287;28;20135;-69
2024/01/03 04:12:24;;;;;;;6.47;3.42;;;22.80;49.30;;;;;;5114521;28;20052;-68
2024/01/03 04:14:50;;;;;;;6.28;3.63;;;22.90;49.40;;;;;;5078450;28;20044;-69
2024/01/03 04:17:16;;;;;;;6.65;4.07;;;22.80;49.20;;;;;;5115117;27;20054;-69
2024/01/03 04:19:42;;;;;;;8.05;4.22;;;22.70;49.20;;;;;;5114834;28;20039;-69
2024/01/03 04:22:08;;;;;;;8.95;4.50;;;22.70;49.20;;;;;;5114098;28;20042;-69
2024/01/03 04:24:35;;;;;;;6.90;3.97;;;22.70;49.20;;;;;;5114144;28;20424;-69
2024/01/03 04:27:01;;;;;;;7.55;4.50;;;22.70;49.20;;;;;;5114868;28;20121;-68
2024/01/03 04:29:27;;;;;;;10.10;5.13;;;22.80;49.10;;;;;;5114132;28;20423;-68
2024/01/03 04:31:53;;;;;;;12.40;5.03;;;22.70;49.10;;;;;;5114371;28;20527;-69
2024/01/03 04:34:19;;;;;;;12.52;5.22;;;22.80;49.00;;;;;;5114340;28;20039;-69
2024/01/03 04:36:45;;;;;;;13.90;6.35;;;22.80;48.90;;;;;;5114000;28;20031;-69
2024/01/03 04:39:11;;;;;;;10.77;5.28;;;22.80;48.90;;;;;;5114475;28;20463;-69
2024/01/03 04:41:37;;;;;;;12.38;5.18;;;22.90;49.00;;;;;;5111125;28;20184;-69
2024/01/03 04:44:04;;;;;;;8.88;5.30;;;22.90;49.70;;;;;;5089269;28;20074;-69
2024/01/03 04:46:30;;;;;;;12.10;6.18;;;22.90;49.70;;;;;;5077888;28;20043;-69
2024/01/03 04:48:56;;;;;;;9.95;4.78;;;22.90;48.80;;;;;;5111886;28;20165;-69
2024/01/03 04:51:22;;;;;;;11.57;5.78;;;22.80;48.70;;;;;;5085383;28;20051;-69
2024/01/03 04:53:48;;;;;;;8.43;4.97;;;22.70;48.70;;;;;;5113386;28;20042;-69
2024/01/03 04:56:14;;;;;;;9.45;5.30;;;22.80;48.70;;;;;;5094856;28;20115;-68
2024/01/03 04:58:40;;;;;;;12.70;4.65;;;22.90;48.80;;;;;;5113993;27;20395;-69
2024/01/03 05:01:06;;;;;;;8.93;5.40;;;22.70;48.70;;;;;;5112893;28;20129;-68
2024/01/03 05:03:32;;;;;;;12.80;5.60;;;22.80;48.70;;;;;;5113322;28;20054;-69
2024/01/03 05:05:58;;;;;;;11.90;5.35;;;22.60;48.60;;;;;;5113893;28;20028;-69
2024/01/03 05:08:24;;;;;;;19.15;9.32;;;22.60;48.60;;;;;;5113788;28;20071;-69
2024/01/03 05:10:51;;;;;;;11.13;5.63;;;22.70;48.60;;;;;;5113399;28;20081;-70
2024/01/03 05:13:17;;;;;;;6.13;4.20;;;22.80;48.70;;;;;;5113477;28;20063;-69
2024/01/03 05:15:43;;;;;;;7.13;4.53;;;22.60;48.60;;;;;;5114053;28;20089;-68
2024/01/03 05:18:09;;;;;;;6.85;4.65;;;22.70;48.70;;;;;;5110261;28;20096;-68
2024/01/03 05:20:35;;;;;;;7.85;4.22;;;22.70;48.70;;;;;;5111728;28;20428;-68
2024/01/03 05:23:02;;;;;;;3.08;2.33;;;22.70;48.60;;;;;;5093922;28;20051;-69
2024/01/03 05:25:28;;;;;;;4.82;3.13;;;22.90;48.50;;;;;;5093707;28;20071;-69
2024/01/03 05:27:55;;;;;;;4.68;2.95;;;22.70;48.40;;;;;;5113453;28;20031;-68
2024/01/03 05:30:21;;;;;;;4.63;2.67;;;22.70;48.40;;;;;;5112878;28;20041;-69
2024/01/03 05:32:47;;;;;;;4.65;3.13;;;22.70;48.40;;;;;;5113217;28;20548;-69
2024/01/03 05:35:13;;;;;;;6.03;2.95;;;22.80;48.40;;;;;;5093485;28;20067;-69
2024/01/03 05:37:39;;;;;;;6.35;3.20;;;22.90;48.60;;;;;;5092749;28;20118;-69
2024/01/03 05:40:06;;;;;;;7.35;3.75;;;22.80;48.50;;;;;;5092183;28;20472;-68
2024/01/03 05:42:33;;;;;;;5.35;3.63;;;22.80;48.50;;;;;;5106641;28;20414;-71
2024/01/03 05:44:59;;;;;;;3.80;2.80;;;22.90;48.50;;;;;;5100707;28;20031;-72
2024/01/03 05:47:25;;;;;;;3.45;2.47;;;22.80;45.80;;;;;;5102425;28;20031;-71
2024/01/03 05:49:51;;;;;;;2.17;1.88;;;22.70;44.70;;;;;;5101893;28;20035;-71
2024/01/03 05:52:17;;;;;;;2.25;2.00;;;22.80;39.80;;;;;;5105337;28;20032;-71
2024/01/03 05:54:43;;;;;;;3.15;2.00;;;22.70;44.70;;;;;;5108641;28;20043;-71
2024/01/03 05:57:09;;;;;;;7.40;2.15;;;22.70;39.70;;;;;;5103993;28;20020;-71
2024/01/03 05:59:35;;;;;;;2.33;1.95;;;22.70;42.90;;;;;;5109420;27;20024;-73
2024/01/03 06:02:01;;;;;;;4.60;2.45;;;22.70;47.30;;;;;;5111541;28;20372;-73
2024/01/03 06:04:27;;;;;;;3.42;1.98;;;22.90;48.20;;;;;;5111081;28;20035;-73
2024/01/03 06:06:54;;;;;;;3.30;2.42;;;22.90;48.60;;;;;;5106008;28;20085;-73
2024/01/03 06:09:20;;;;;;;2.97;2.08;;;23.10;48.00;;;;;;5104274;28;20163;-73
2024/01/03 06:11:46;;;;;;;3.03;2.67;;;23.00;48.70;;;;;;5103006;28;20032;-72
2024/01/03 06:14:12;;;;;;;3.20;3.00;;;23.10;47.20;;;;;;5103252;28;20035;-72
2024/01/03 06:16:39;;;;;;;3.55;2.60;;;23.20;44.30;;;;;;5101429;28;20056;-76
2024/01/03 06:19:05;;;;;;;3.55;2.55;;;23.00;43.60;;;;;;5067387;28;20483;-72
2024/01/03 06:21:32;;;;;;;7.60;4.63;;;23.20;43.10;;;;;;5106543;28;20023;-72
2024/01/03 06:23:58;;;;;;;6.07;4.00;;;23.20;53.60;;;;;;5111896;28;20042;-72
2024/01/03 06:26:29;;;;;;;8.70;3.83;;;23.30;54.30;;;;;;5112139;28;20031;-73
2024/01/03 06:28:55;;;;;;;12.32;4.72;;;23.30;55.00;;;;;;5102892;28;20039;-72
2024/01/03 06:31:21;;;;;;;8.90;4.57;;;23.30;55.20;;;;;;5105311;28;20480;-72
2024/01/03 06:33:48;;;;;;;8.32;4.32;;;23.30;55.50;;;;;;5104306;28;20042;-73
2024/01/03 06:36:15;;;;;;;6.30;4.05;;;23.30;55.70;;;;;;5105277;28;20027;-75
2024/01/03 06:38:41;;;;;;;9.57;4.93;;;23.30;55.90;;;;;;5104638;28;20028;-71
2024/01/03 06:41:07;;;;;;;11.15;4.45;;;23.30;56.60;;;;;;5108595;28;20539;-72
2024/01/03 06:43:33;;;;;;;12.93;5.03;;;23.40;56.50;;;;;;5111433;28;20145;-72
2024/01/03 06:45:59;;;;;;;10.15;4.78;;;23.40;56.80;;;;;;5108509;28;20395;-74
2024/01/03 06:48:25;;;;;;;9.55;4.50;;;23.50;56.80;;;;;;5111475;28;20050;-73
2024/01/03 06:50:52;;;;;;;8.05;4.70;;;23.40;56.20;;;;;;5109665;28;20540;-74
2024/01/03 06:53:18;;;;;;;10.10;4.13;;;23.40;56.10;;;;;;5111837;28;20107;-72
2024/01/03 06:55:44;;;;;;;8.13;4.47;;;23.30;57.80;;;;;;5110488;28;20137;-76
2024/01/03 06:58:10;;;;;;;10.75;4.88;;;23.40;60.80;;;;;;5111411;27;20035;-73
2024/01/03 07:00:37;;;;;;;9.88;4.70;;;23.50;59.90;;;;;;5111543;28;20493;-73
2024/01/03 07:03:04;;;;;;;6.35;4.60;;;23.50;60.80;;;;;;5091862;28;20043;-73
2024/01/03 07:05:30;;;;;;;11.30;5.20;;;23.50;60.70;;;;;;5109068;28;20030;-74
2024/01/03 07:07:58;;;;;;;7.68;4.20;;;23.50;59.00;;;;;;5110548;28;20530;-71
2024/01/03 07:10:31;;;;;;;8.70;4.80;;;23.40;58.20;;;;;;5097496;28;20067;-72
2024/01/03 07:12:58;;;;;;;;;;;23.50;57.70;;;;;;5099698;28;20089;-73
2024/01/03 07:15:26;;;;;;;7.32;4.25;;;23.40;57.20;;;;;;5056386;28;19934;-72
2024/01/03 07:17:55;;;;;;;8.80;4.47;;;23.40;57.10;;;;;;5102724;28;20187;-73
2024/01/03 07:20:24;;;;;;;7.95;4.15;;;23.60;56.70;;;;;;5071086;28;20463;-70
2024/01/03 07:22:50;;;;;;;8.30;4.93;;;23.40;57.30;;;;;;5109849;28;20067;-71
2024/01/03 07:25:17;;;;;;;8.85;5.32;;;23.50;56.30;;;;;;5111175;28;20368;-72
2024/01/03 07:27:43;;;;;;;9.30;5.18;;;23.60;56.60;;;;;;5111097;28;20520;-70
2024/01/03 07:30:10;;;;;;;9.05;5.43;;;23.50;56.20;;;;;;5110394;28;20038;-69
2024/01/03 07:32:37;;;;;;;8.05;4.50;;;23.50;56.10;;;;;;5111253;28;20043;-70
2024/01/03 07:35:03;;;;;;;7.60;4.28;;;23.50;56.00;;;;;;5108573;28;20051;-70
2024/01/03 07:37:29;;;;;;;9.32;4.95;;;23.50;56.00;;;;;;5100578;28;20060;-70
2024/01/03 07:39:55;;;;;;;8.18;4.72;;;23.50;56.00;;;;;;5103950;28;20059;-72
2024/01/03 07:42:21;;;;;;;7.68;4.65;;;23.60;55.90;;;;;;5110413;28;20498;-74
2024/01/03 07:44:47;;;;;;;8.18;5.03;;;23.50;55.80;;;;;;5110267;28;20463;-72
2024/01/03 07:47:14;;;;;;;8.75;5.07;;;23.50;56.00;;;;;;5111046;28;20074;-73
2024/01/03 07:49:42;;;;;;;4.93;3.50;;;23.50;56.30;;;;;;5107970;28;20063;-72
2024/01/03 07:52:08;;;;;;;8.63;4.32;;;23.50;56.80;;;;;;5110052;28;20058;-73
2024/01/03 07:54:34;;;;;;;8.25;5.07;;;23.50;56.80;;;;;;5110979;28;20028;-73
2024/01/03 07:57:04;;;;;;;9.43;4.38;;;23.60;56.70;;;;;;5110587;28;20040;-72
2024/01/03 07:59:32;;;;;;;7.93;3.10;;;23.70;56.60;;;;;;5110751;28;20049;-72
2024/01/03 08:01:58;;;;;;;8.93;3.92;;;23.70;56.50;;;;;;5090261;28;20043;-69
2024/01/03 08:04:25;;;;;;;2.40;1.95;;;23.70;56.40;;;;;;5106227;28;20046;-67
2024/01/03 08:06:51;;;;;;;2.42;1.65;;;23.60;55.90;;;;;;5110702;28;20058;-68
2024/01/03 08:09:17;;;;;;;5.03;2.13;;;23.60;54.80;;;;;;5110597;28;20036;-70
2024/01/03 08:11:43;;;;;;;6.10;1.90;;;23.70;54.20;;;;;;5110704;28;20040;-69
2024/01/03 08:14:10;;;;;;;10.98;5.05;;;23.70;54.00;;;;;;5110619;28;20050;-69
2024/01/03 08:16:36;;;;;;;3.75;2.25;;;23.70;54.00;;;;;;5073743;28;20503;-69
2024/01/03 08:19:02;;;;;;;3.78;2.22;;;23.70;54.00;;;;;;5072748;28;20134;-70
2024/01/03 08:21:28;;;;;;;4.15;2.58;;;23.70;54.10;;;;;;5086104;28;20054;-69
2024/01/03 08:23:54;;;;;;;2.33;1.50;;;23.40;54.00;;;;;;5110463;28;20376;-69
2024/01/03 08:26:21;;;;;;;3.50;1.67;;;23.80;53.90;;;;;;5110481;28;20035;-69
2024/01/03 08:28:47;;;;;;;3.60;2.28;;;23.70;53.70;;;;;;5110197;28;20518;-70
2024/01/03 08:31:17;;;;;;;1.88;1.50;;;23.70;53.90;;;;;;5109325;28;20075;-69
2024/01/03 08:33:46;;;;;;;2.65;1.90;;;23.70;53.80;;;;;;5110248;28;20729;-70
2024/01/03 08:36:13;;;;;;;3.58;1.90;;;23.60;53.50;;;;;;5110317;28;20024;-70
2024/01/03 08:38:40;;;;;;;8.18;3.53;;;23.70;53.50;;;;;;5110581;28;20031;-73
2024/01/03 08:41:16;;;;;;;6.60;3.85;;;23.70;53.40;;;;;;5110328;28;20130;-73
2024/01/03 08:43:43;;;;;;;4.28;2.60;;;23.70;53.30;;;;;;5106738;28;20114;-73
2024/01/03 08:46:10;;;;;;;8.05;5.38;;;23.60;53.00;;;;;;5099956;28;20054;-73
2024/01/03 08:48:39;;;;;;;6.70;4.07;;;23.60;52.80;;;;;;5103591;28;20032;-73
2024/01/03 08:51:13;;;;;;;7.70;5.10;;;23.30;52.60;;;;;;5099801;28;20035;-72
2024/01/03 08:53:40;;;;;;;2.38;1.80;;;23.70;53.00;;;;;;5080664;28;20083;-72
2024/01/03 08:56:17;;;;;;;2.33;1.67;;;23.50;53.00;;;;;;5100305;28;20032;-72
2024/01/03 08:58:46;;;;;;;3.28;2.30;;;23.50;52.60;;;;;;5100017;28;20024;-72
2024/01/03 09:01:20;;;;;;;7.50;4.85;;;23.60;52.60;;;;;;5093494;28;20028;-72
2024/01/03 09:03:47;;;;;;;3.83;2.75;;;23.60;52.60;;;;;;5107556;28;20115;-72
2024/01/03 09:06:16;;;;;;;3.75;2.20;;;23.60;52.50;;;;;;5112786;28;20024;-72
2024/01/03 09:08:42;;;;;;;7.05;4.38;;;23.60;52.50;;;;;;5110690;28;20043;-74
2024/01/03 09:11:13;;;;;;;2.97;2.45;;;23.60;52.50;;;;;;5113035;28;20100;-73
2024/01/03 09:13:40;;;;;;;10.35;5.20;;;23.60;53.10;;;;;;5113854;28;20059;-73
2024/01/03 09:16:07;;;;;;;2.40;2.20;;;23.70;52.00;;;;;;5111985;28;20050;-72
2024/01/03 09:18:33;;;;;;;7.95;5.25;;;23.60;52.00;;;;;;5113824;28;20532;-72
2024/01/03 09:21:02;;;;;;;10.63;5.35;;;23.70;52.00;;;;;;5093674;28;20394;-72
2024/01/03 09:23:28;;;;;;;10.38;5.00;;;23.60;51.90;;;;;;5113666;28;20770;-71
2024/01/03 09:25:55;;;;;;;9.15;5.80;;;23.60;51.80;;;;;;5113454;28;20050;-72
2024/01/03 09:28:23;;;;;;;7.60;4.72;;;23.60;51.60;;;;;;5112283;28;20028;-72
2024/01/03 09:30:49;;;;;;;11.00;4.38;;;23.60;51.60;;;;;;5113190;28;20041;-73
2024/01/03 09:33:15;;;;;;;8.10;3.20;;;23.60;51.60;;;;;;5113404;28;20482;-73
2024/01/03 09:35:42;;;;;;;5.22;3.45;;;23.60;51.60;;;;;;5113272;28;20039;-72
2024/01/03 09:38:09;;;;;;;3.95;2.60;;;23.50;51.50;;;;;;5113128;28;20023;-72
2024/01/03 09:40:35;;;;;;;6.78;2.92;;;23.50;51.60;;;;;;5113438;28;20409;-72
2024/01/03 09:43:02;;;;;;;6.13;2.35;;;23.40;51.30;;;;;;5112699;28;20051;-72
2024/01/03 09:45:30;;;;;;;9.98;3.38;;;23.50;51.20;;;;;;5112632;28;20031;-73
2024/01/03 09:47:57;;;;;;;3.60;3.08;;;23.50;50.90;;;;;;5111937;28;20113;-72
2024/01/03 09:50:23;;;;;;;6.63;3.70;;;23.50;50.90;;;;;;5093388;28;20067;-72
2024/01/03 09:52:49;;;;;;;8.90;3.63;;;23.40;50.40;;;;;;5112355;28;20035;-72
2024/01/03 09:55:17;;;;;;;5.80;3.70;;;23.40;50.30;;;;;;5110942;28;20035;-73
2024/01/03 09:57:44;;;;;;;5.40;3.95;;;23.40;50.30;;;;;;5112277;28;20039;-72
2024/01/03 10:00:11;;;;;;;6.00;3.38;;;23.30;50.20;;;;;;5112101;28;20050;-78
2024/01/03 10:02:37;;;;;;;6.65;4.10;;;23.40;50.40;;;;;;5109967;28;20055;-74
2024/01/03 10:05:04;;;;;;;8.80;4.25;;;23.30;51.10;;;;;;5112088;28;20467;-73
2024/01/03 10:07:36;;;;;;;5.50;3.85;;;23.50;51.60;;;;;;5075208;28;20066;-74
2024/01/03 10:10:04;;;;;;;6.43;4.35;;;23.40;51.40;;;;;;5111693;28;20103;-71
2024/01/03 10:12:33;;;;;;;8.93;4.22;;;23.40;51.40;;;;;;5111757;28;20114;-73
2024/01/03 10:15:16;;;;;;;5.65;3.17;;;23.60;51.50;;;;;;5111813;28;20043;-72
2024/01/03 10:17:47;;;;;;;6.03;3.58;;;23.40;51.60;;;;;;5100179;28;20052;-72
2024/01/03 10:20:26;;;;;;;11.57;4.57;;;23.50;51.90;;;;;;5101170;28;20039;-73
2024/01/03 10:23:09;;;;;;;5.68;2.88;;;23.50;52.00;;;;;;5112211;28;20035;-73
2024/01/03 10:25:37;;;;;;;8.82;4.40;;;23.50;52.30;;;;;;5111558;28;20043;-73
2024/01/03 10:28:08;;;;;;;3.80;2.88;;;23.60;52.40;;;;;;5111544;28;20446;-72
2024/01/03 10:30:34;;;;;;;4.57;3.90;;;23.50;52.80;;;;;;5111918;28;20038;-73
2024/01/03 10:33:05;;;;;;;3.78;2.60;;;23.50;53.00;;;;;;5112166;28;20036;-71
2024/01/03 10:35:44;;;;;;;3.78;3.05;;;23.60;53.30;;;;;;5111949;28;20043;-73
2024/01/03 10:38:10;;;;;;;7.13;4.05;;;23.50;53.40;;;;;;5111883;28;20114;-72
2024/01/03 10:40:39;;;;;;;5.63;3.33;;;23.70;53.60;;;;;;5111910;28;20433;-71
2024/01/03 10:43:08;;;;;;;6.88;3.50;;;23.60;53.70;;;;;;5111950;28;20039;-72
2024/01/03 10:45:34;;;;;;;7.15;3.45;;;23.60;53.80;;;;;;5091432;28;20055;-72
2024/01/03 10:48:00;;;;;;;10.40;4.68;;;23.70;54.20;;;;;;5110982;28;20035;-72
2024/01/03 10:50:28;;;;;;;5.50;4.57;;;23.50;54.20;;;;;;5110378;28;20043;-72
2024/01/03 10:52:58;;;;;;;7.53;4.20;;;23.50;54.10;;;;;;5111599;28;20031;-73
2024/01/03 10:55:38;;;;;;;5.75;3.78;;;23.60;54.30;;;;;;5111498;28;20024;-73
2024/01/03 10:58:17;;;;;;;9.43;5.25;;;23.60;54.00;;;;;;5074864;28;20048;-72
2024/01/03 11:01:14;;;;;;;8.23;4.78;;;23.60;53.60;;;;;;5099298;28;20417;-72
2024/01/03 11:04:06;;;;;;;10.55;4.53;;;23.60;53.40;;;;;;5111583;28;20365;-73
2024/01/03 11:06:58;;;;;;;4.78;3.63;;;23.50;53.10;;;;;;5111409;28;20110;-72
2024/01/03 11:09:28;;;;;;;7.77;4.73;;;23.50;52.90;;;;;;5111661;28;20054;-73
2024/01/03 11:12:11;;;;;;;7.65;4.93;;;23.50;52.80;;;;;;5111223;28;20571;-72
2024/01/03 11:14:37;;;;;;;;;;;23.50;52.60;;;;;;5092036;28;20379;-71
2024/01/03 11:17:03;;;;;;;9.18;3.33;;;23.50;52.60;;;;;;5110433;28;19988;-73
2024/01/03 11:19:32;;;;;;;1.63;1.13;;;23.60;52.50;;;;;;5105781;28;20039;-73
2024/01/03 11:22:04;;;;;;;4.03;2.65;;;23.50;52.50;;;;;;5110491;28;20023;-72
2024/01/03 11:24:30;;;;;;;7.03;3.13;;;23.50;52.50;;;;;;5111357;28;20111;-72
2024/01/03 11:27:03;;;;;;;9.25;3.63;;;23.60;52.50;;;;;;5110288;28;20118;-72
2024/01/03 11:29:36;;;;;;;11.35;4.78;;;23.60;51.20;;;;;;5110849;28;20080;-74
2024/01/03 11:32:07;;;;;;;6.75;4.30;;;23.80;48.80;;;;;;5111054;28;20047;-74
2024/01/03 11:34:46;;;;;;;7.00;4.28;;;23.70;50.90;;;;;;5110625;28;20036;-73
2024/01/03 11:37:18;;;;;;;6.65;4.10;;;23.60;44.50;;;;;;5110371;28;20114;-73
2024/01/03 11:39:46;;;;;;;5.78;3.20;;;23.70;46.40;;;;;;5111303;28;20058;-73
2024/01/03 11:42:33;;;;;;;12.23;5.28;;;23.70;51.10;;;;;;5109073;28;20081;-76
2024/01/03 11:45:13;;;;;;;7.88;4.85;;;23.80;45.80;;;;;;5111298;28;20379;-77
2024/01/03 11:47:46;;;;;;;7.15;4.70;;;24.00;52.00;;;;;;5100949;28;20040;-75
2024/01/03 11:50:17;;;;;;;7.88;4.72;;;23.90;60.40;;;;;;5100279;28;20086;-75
2024/01/03 11:52:49;;;;;;;6.80;4.60;;;24.10;56.40;;;;;;5057750;28;20122;-74
2024/01/03 11:55:17;;;;;;;20.40;5.35;;;24.30;51.20;;;;;;5108264;28;20028;-73
2024/01/03 11:57:47;;;;;;;10.60;4.75;;;24.30;54.10;;;;;;5090590;28;20475;-74
2024/01/03 12:00:21;;;;;;;8.68;4.85;;;24.40;53.10;;;;;;5107544;28;20038;-72
2024/01/03 12:02:55;;;;;;;10.57;4.88;;;24.60;48.70;;;;;;5108566;28;20114;-74
2024/01/03 12:05:23;;;;;;;7.38;4.68;;;24.50;51.60;;;;;;5106509;28;20040;-75
2024/01/03 12:07:50;;;;;;;8.10;5.13;;;24.60;51.60;;;;;;5107818;28;20052;-77
2024/01/03 12:10:17;;;;;;;7.72;5.18;;;24.50;49.50;;;;;;5090954;28;20438;-75
2024/01/03 12:12:47;;;;;;;7.68;5.22;;;24.70;50.50;;;;;;5108374;28;20399;-72
2024/01/03 12:15:25;;;;;;;6.30;4.75;;;24.70;50.30;;;;;;5107629;28;20039;-73
2024/01/03 12:17:51;;;;;;;7.65;5.28;;;24.90;51.20;;;;;;5107218;28;20085;-73
2024/01/03 12:20:20;;;;;;;9.70;5.05;;;24.80;54.10;;;;;;5110133;28;20026;-72
2024/01/03 12:22:46;;;;;;;9.30;5.32;;;24.90;53.30;;;;;;5090983;28;20039;-72
2024/01/03 12:25:25;;;;;;;13.40;5.10;;;24.90;52.50;;;;;;5109428;28;20051;-75
2024/01/03 12:27:56;;;;;;;10.95;5.93;;;25.00;49.80;;;;;;5109471;28;20032;-76
2024/01/03 12:30:22;;;;;;;10.27;5.30;;;25.00;41.50;;;;;;5111606;28;20031;-77
2024/01/03 12:32:50;;;;;;;10.07;5.22;;;24.80;40.60;;;;;;5114155;27;20027;-77
2024/01/03 12:35:16;;;;;;;9.57;4.85;;;25.00;37.60;;;;;;5114040;28;20043;-71
2024/01/03 12:37:47;;;;;;;9.98;5.65;;;24.70;48.40;;;;;;5114218;28;20108;-73
2024/01/03 12:40:15;;;;;;;8.85;5.57;;;24.80;49.50;;;;;;5113706;28;20075;-73
2024/01/03 12:42:43;;;;;;;13.02;5.72;;;24.90;50.00;;;;;;5107971;28;20035;-76
2024/01/03 12:45:09;;;;;;;9.80;5.97;;;24.70;50.20;;;;;;5113975;28;20039;-72
2024/01/03 12:47:36;;;;;;;9.02;6.05;;;24.90;50.00;;;;;;5112223;28;20032;-69